Terminal Aerodrome Forecast
Issued by NWS

Home | Current Version | Previous Version | Text Only | Print | Product List | Glossary On
Versions: 1 2 3 4 5 6 7 8 9 10 11 12 13 14 15 16 17 18 19 20 21
345
FTUS43 KGRB 160520
TAFMTW
TAF
KMTW 160520Z 1606/1706 34013G20KT P6SM SCT025 OVC100
      TEMPO 1606/1610 4SM -SHSN BKN025
     FM161200 32012G20KT P6SM SKC
     FM161900 28010G17KT P6SM SKC
     FM170000 24006KT P6SM SKC=

USA.gov is the U.S. government's official web portal to all federal, state and local government web resources and services.